Time;durP1;ratioP1;P1;durP2;ratioP2;P2;SDS_P1;SDS_P2;PMS_P1;PMS_P2;Temp;Humidity;BMP_temperature;BMP_pressure;BME280_temperature;BME280_humidity;BME280_pressure;Samples;Min_cycle;Max_cycle;Signal;HPM_P1;HPM_P2
2021/06/02 00:00:25;;;;;;;4.22;2.83;;;14.50;55.50;;;;;;5030019;28;20076;-73
2021/06/02 00:02:54;;;;;;;5.88;2.65;;;14.50;55.50;;;;;;4998921;28;20030;-72
2021/06/02 00:05:21;;;;;;;3.83;3.08;;;14.40;55.50;;;;;;5027836;28;20100;-72
2021/06/02 00:07:48;;;;;;;7.82;2.90;;;14.40;55.60;;;;;;5024527;28;20056;-72
2021/06/02 00:10:15;;;;;;;3.30;2.83;;;14.30;55.70;;;;;;5027709;28;20481;-72
2021/06/02 00:12:41;;;;;;;5.15;3.28;;;14.30;56.00;;;;;;5029332;28;20112;-72
2021/06/02 00:15:08;;;;;;;3.97;3.10;;;14.30;56.10;;;;;;5028034;28;20481;-71
2021/06/02 00:17:34;;;;;;;3.00;2.80;;;14.30;56.20;;;;;;5007531;28;20104;-72
2021/06/02 00:20:00;;;;;;;8.05;3.00;;;14.30;56.20;;;;;;5019255;28;20485;-72
2021/06/02 00:22:25;;;;;;;4.20;2.90;;;14.30;56.30;;;;;;5029968;28;20014;-72
2021/06/02 00:24:51;;;;;;;3.33;2.92;;;14.30;56.30;;;;;;5028538;28;20028;-72
2021/06/02 00:27:17;;;;;;;5.15;3.08;;;14.30;56.40;;;;;;5030574;28;20053;-72
2021/06/02 00:29:44;;;;;;;4.18;2.85;;;14.20;56.50;;;;;;5012160;28;20034;-72
2021/06/02 00:32:12;;;;;;;4.15;2.85;;;14.10;56.60;;;;;;5029311;28;20033;-72
2021/06/02 00:34:38;;;;;;;2.90;2.60;;;14.10;56.70;;;;;;5029076;28;20033;-72
2021/06/02 00:37:07;;;;;;;3.88;2.95;;;14.10;56.80;;;;;;5029937;28;20477;-72
2021/06/02 00:39:33;;;;;;;3.95;2.92;;;14.00;56.90;;;;;;5030316;28;20030;-72
2021/06/02 00:41:59;;;;;;;4.13;2.65;;;14.00;57.00;;;;;;5029153;28;20034;-72
2021/06/02 00:44:25;;;;;;;5.75;3.15;;;13.90;57.20;;;;;;5029241;28;20068;-72
2021/06/02 00:46:51;;;;;;;5.90;2.97;;;13.90;57.30;;;;;;5022731;28;20442;-72
2021/06/02 00:49:23;;;;;;;3.35;2.80;;;13.80;57.40;;;;;;5011118;28;20060;-71
2021/06/02 00:52:04;;;;;;;4.90;3.10;;;13.80;57.60;;;;;;5029488;28;20026;-72
2021/06/02 00:54:32;;;;;;;5.05;3.00;;;13.70;58.00;;;;;;5026291;28;20048;-72
2021/06/02 00:57:05;;;;;;;4.30;2.90;;;13.70;58.00;;;;;;5027433;28;20087;-71
2021/06/02 00:59:39;;;;;;;5.35;2.85;;;13.70;58.00;;;;;;5029792;28;20096;-72
2021/06/02 01:02:17;;;;;;;4.50;3.13;;;13.70;58.10;;;;;;5012880;28;20036;-71
2021/06/02 01:04:43;;;;;;;7.68;2.90;;;13.60;58.10;;;;;;5029639;28;20155;-72
2021/06/02 01:07:11;;;;;;;4.38;3.22;;;13.60;58.00;;;;;;5027058;28;20409;-71
2021/06/02 01:09:44;;;;;;;7.35;3.22;;;13.50;58.10;;;;;;5030043;28;20018;-71
2021/06/02 01:12:14;;;;;;;3.97;2.83;;;13.50;58.40;;;;;;5029658;28;20124;-72
2021/06/02 01:14:40;;;;;;;5.72;2.85;;;13.40;58.40;;;;;;5011070;28;20029;-72
2021/06/02 01:17:06;;;;;;;8.30;3.10;;;13.40;58.50;;;;;;5026913;28;20053;-72
2021/06/02 01:19:32;;;;;;;4.40;2.58;;;13.40;58.50;;;;;;5028136;28;20029;-72
2021/06/02 01:22:00;;;;;;;6.15;3.10;;;13.40;58.60;;;;;;5028417;28;20091;-72
2021/06/02 01:24:31;;;;;;;3.88;2.80;;;13.30;58.50;;;;;;5027743;28;20033;-72
2021/06/02 01:26:59;;;;;;;4.60;3.28;;;13.30;58.80;;;;;;5028783;28;20477;-72
2021/06/02 01:29:26;;;;;;;7.30;3.10;;;13.30;58.60;;;;;;5029535;28;20099;-71
2021/06/02 01:32:29;;;;;;;5.03;2.60;;;13.20;58.50;;;;;;5029318;28;20060;-72
2021/06/02 01:35:03;;;;;;;5.15;2.40;;;13.10;58.90;;;;;;5028154;28;20029;-71
2021/06/02 01:37:55;;;;;;;3.80;3.13;;;13.10;58.90;;;;;;5016512;28;20487;-74
2021/06/02 01:40:53;;;;;;;3.22;2.88;;;12.90;59.10;;;;;;5011438;28;20397;-72
2021/06/02 01:43:34;;;;;;;4.45;2.60;;;12.90;59.90;;;;;;5029130;28;20095;-72
2021/06/02 01:46:28;;;;;;;4.28;2.65;;;12.90;59.10;;;;;;5024000;28;20033;-73
2021/06/02 01:49:21;;;;;;;4.70;3.03;;;12.80;59.50;;;;;;5013499;28;20038;-74
2021/06/02 01:52:10;;;;;;;3.60;2.92;;;12.80;59.50;;;;;;5018681;28;20112;-72
2021/06/02 01:55:15;;;;;;;2.92;2.72;;;12.70;59.70;;;;;;5023058;28;20026;-72
2021/06/02 01:58:22;;;;;;;3.38;2.53;;;12.70;59.90;;;;;;5021510;28;20025;-73
2021/06/02 02:01:28;;;;;;;5.50;2.88;;;12.60;59.70;;;;;;4994917;28;20565;-72
2021/06/02 02:04:14;;;;;;;3.67;3.05;;;12.60;60.00;;;;;;5027683;28;20027;-72
2021/06/02 02:07:09;;;;;;;4.75;3.17;;;12.50;59.60;;;;;;5026272;28;20024;-73
2021/06/02 02:10:12;;;;;;;3.45;2.70;;;12.50;59.70;;;;;;5011955;28;20375;-73
2021/06/02 02:12:56;;;;;;;6.38;3.10;;;12.50;60.30;;;;;;5027965;28;20029;-73
2021/06/02 02:18:00;;;;;;;4.22;2.92;;;12.40;60.10;;;;;;5038037;28;20068;-70
2021/06/02 02:20:46;;;;;;;3.45;2.97;;;12.40;60.20;;;;;;5040638;28;20356;-71
2021/06/02 02:23:20;;;;;;;3.60;3.03;;;12.40;60.50;;;;;;5036437;28;20033;-70
2021/06/02 02:26:06;;;;;;;4.80;2.95;;;12.40;60.50;;;;;;5032289;28;20133;-70
2021/06/02 02:28:38;;;;;;;4.57;3.05;;;12.30;60.60;;;;;;5039428;28;20033;-70
2021/06/02 02:31:24;;;;;;;6.03;2.88;;;12.30;60.70;;;;;;5042479;28;20032;-71
2021/06/02 02:34:07;;;;;;;3.58;3.20;;;12.20;60.90;;;;;;5038770;28;20453;-70
2021/06/02 02:36:46;;;;;;;5.30;3.10;;;12.20;60.90;;;;;;5039427;28;20037;-70
2021/06/02 02:39:30;;;;;;;4.47;3.40;;;12.20;61.00;;;;;;5039704;28;20060;-70
2021/06/02 02:42:11;;;;;;;6.53;3.67;;;12.10;61.10;;;;;;5048046;28;20847;-70
2021/06/02 02:44:49;;;;;;;4.53;3.15;;;12.10;61.20;;;;;;5048293;28;20396;-70
2021/06/02 02:47:32;;;;;;;5.55;3.30;;;12.00;61.20;;;;;;5038383;28;20030;-70
2021/06/02 02:50:13;;;;;;;5.85;3.30;;;12.00;61.20;;;;;;5040564;28;20030;-70
2021/06/02 02:53:10;;;;;;;5.68;3.38;;;11.90;61.40;;;;;;5046498;28;20493;-70
2021/06/02 02:55:37;;;;;;;3.30;2.63;;;11.90;61.40;;;;;;5038009;28;20040;-70
2021/06/02 02:58:24;;;;;;;3.90;3.08;;;11.80;61.10;;;;;;5045705;28;20112;-70
2021/06/02 03:01:02;;;;;;;5.28;3.10;;;11.80;61.40;;;;;;5040772;28;20021;-71
2021/06/02 03:03:33;;;;;;;3.78;2.80;;;11.80;61.70;;;;;;5050470;28;20107;-70
2021/06/02 03:06:14;;;;;;;3.50;3.00;;;11.70;61.60;;;;;;5030954;28;20041;-70
2021/06/02 03:08:58;;;;;;;2.80;2.60;;;11.70;61.50;;;;;;5045158;28;20037;-70
2021/06/02 03:11:48;;;;;;;3.60;2.95;;;11.70;61.90;;;;;;5036256;28;20063;-70
2021/06/02 03:14:24;;;;;;;6.22;2.95;;;11.70;61.70;;;;;;5041825;28;20033;-70
2021/06/02 03:16:57;;;;;;;3.25;2.95;;;11.70;61.80;;;;;;5040708;28;20143;-70
2021/06/02 03:19:34;;;;;;;3.03;2.72;;;11.60;61.60;;;;;;5045740;28;20025;-71
2021/06/02 03:22:07;;;;;;;5.65;3.20;;;11.50;61.80;;;;;;5033096;28;20044;-70
2021/06/02 03:24:52;;;;;;;7.05;2.92;;;11.40;62.00;;;;;;5040157;28;20040;-71
2021/06/02 03:27:30;;;;;;;4.40;2.72;;;11.40;62.30;;;;;;5041126;28;20033;-70
2021/06/02 03:30:17;;;;;;;5.13;2.90;;;11.40;62.30;;;;;;5040401;28;20040;-71
2021/06/02 03:33:09;;;;;;;3.33;2.80;;;11.40;62.50;;;;;;5042696;28;20028;-70
2021/06/02 03:35:40;;;;;;;;;;;11.40;62.40;;;;;;5042146;28;20424;-72
2021/06/02 03:38:21;;;;;;;3.75;2.88;;;11.30;61.40;;;;;;5042825;28;19912;-72
2021/06/02 03:41:02;;;;;;;4.50;2.97;;;11.30;61.70;;;;;;5049341;28;20048;-72
2021/06/02 03:43:31;;;;;;;3.22;2.75;;;11.30;62.20;;;;;;5042627;28;20440;-71
2021/06/02 03:46:11;;;;;;;3.20;2.90;;;11.30;62.10;;;;;;5038091;28;20032;-71
2021/06/02 03:48:49;;;;;;;6.43;2.80;;;11.30;62.60;;;;;;5037956;28;20117;-72
2021/06/02 03:51:50;;;;;;;3.65;2.88;;;11.30;62.40;;;;;;5041711;28;20052;-71
2021/06/02 03:54:51;;;;;;;5.03;3.00;;;11.30;63.10;;;;;;5035586;28;20385;-71
2021/06/02 03:57:16;;;;;;;5.05;2.90;;;11.20;62.60;;;;;;5044658;28;20021;-72
2021/06/02 03:59:42;;;;;;;3.13;2.80;;;11.10;62.50;;;;;;5049416;28;20163;-72
2021/06/02 04:02:22;;;;;;;6.28;2.90;;;11.10;62.70;;;;;;5034892;28;20056;-69
2021/06/02 04:05:13;;;;;;;4.50;2.85;;;11.10;63.00;;;;;;5037025;28;20034;-71
2021/06/02 04:07:57;;;;;;;3.13;2.42;;;11.00;63.20;;;;;;5048285;28;20459;-70
2021/06/02 04:10:46;;;;;;;3.67;2.95;;;11.10;63.30;;;;;;5043068;28;20029;-70
2021/06/02 04:13:50;;;;;;;4.13;2.70;;;11.10;63.20;;;;;;5032534;28;20021;-72
2021/06/02 04:16:21;;;;;;;4.75;2.50;;;11.10;63.40;;;;;;5039239;28;20041;-70
2021/06/02 04:18:48;;;;;;;5.07;3.17;;;11.10;63.20;;;;;;5041221;28;20055;-70
2021/06/02 04:21:15;;;;;;;3.10;2.80;;;11.10;63.10;;;;;;5045220;28;20028;-70
2021/06/02 04:23:43;;;;;;;7.05;3.10;;;11.20;63.30;;;;;;5039233;28;20095;-70
2021/06/02 04:26:10;;;;;;;5.90;3.20;;;11.20;63.30;;;;;;5035577;28;20022;-70
2021/06/02 04:28:37;;;;;;;7.97;3.55;;;11.20;63.30;;;;;;5038279;28;20029;-70
2021/06/02 04:31:15;;;;;;;4.60;3.55;;;11.30;63.50;;;;;;5045505;28;20021;-70
2021/06/02 04:33:43;;;;;;;6.78;4.10;;;11.30;63.70;;;;;;5037802;28;20026;-70
2021/06/02 04:36:12;;;;;;;4.50;3.80;;;11.40;63.70;;;;;;5040647;28;20063;-70
2021/06/02 04:38:38;;;;;;;5.03;4.50;;;11.40;63.70;;;;;;5048082;28;20025;-70
2021/06/02 04:41:07;;;;;;;4.72;3.95;;;11.50;63.80;;;;;;5032545;28;20021;-69
2021/06/02 04:43:38;;;;;;;8.00;4.05;;;11.60;63.90;;;;;;5032264;28;20057;-70
2021/06/02 04:46:06;;;;;;;5.57;3.60;;;11.70;63.80;;;;;;5035978;28;20025;-69
2021/06/02 04:48:32;;;;;;;6.70;3.92;;;11.70;63.50;;;;;;5038219;28;20029;-69
2021/06/02 04:51:06;;;;;;;5.90;3.88;;;11.70;63.70;;;;;;5038331;28;20489;-69
2021/06/02 04:53:56;;;;;;;5.15;3.90;;;11.70;64.20;;;;;;5041112;28;20033;-70
2021/06/02 04:56:50;;;;;;;7.45;4.00;;;11.80;64.40;;;;;;5042987;28;20449;-68
2021/06/02 04:59:49;;;;;;;4.15;3.38;;;11.80;64.20;;;;;;5043848;28;20037;-68
2021/06/02 05:02:45;;;;;;;9.60;4.03;;;12.00;64.20;;;;;;5039814;28;20021;-68
2021/06/02 05:05:30;;;;;;;4.90;3.78;;;12.10;64.50;;;;;;5041872;28;20020;-68
2021/06/02 05:07:56;;;;;;;6.75;4.20;;;12.10;64.20;;;;;;5034004;28;20025;-67
2021/06/02 05:10:45;;;;;;;4.68;3.67;;;12.20;64.30;;;;;;5045166;28;20152;-67
2021/06/02 05:13:41;;;;;;;3.95;3.10;;;12.30;64.60;;;;;;5034913;28;20505;-67
2021/06/02 05:16:43;;;;;;;4.53;3.60;;;12.50;64.80;;;;;;5035368;28;20111;-67
2021/06/02 05:22:48;;;;;;;4.68;3.72;;;12.80;64.60;;;;;;5030964;28;20034;-68
2021/06/02 05:25:38;;;;;;;5.50;3.63;;;12.90;64.80;;;;;;5033964;28;20033;-67
2021/06/02 05:28:41;;;;;;;4.57;3.38;;;13.10;64.60;;;;;;5041422;28;20025;-67
2021/06/02 05:31:10;;;;;;;15.13;8.88;;;13.20;64.50;;;;;;5037762;28;20032;-67
2021/06/02 05:33:56;;;;;;;3.90;3.50;;;13.30;64.20;;;;;;5038196;28;20116;-67
2021/06/02 05:36:57;;;;;;;6.72;3.78;;;13.50;64.70;;;;;;5036564;28;20022;-66
2021/06/02 05:39:53;;;;;;;4.80;3.50;;;13.60;64.20;;;;;;4981229;28;20455;-69
2021/06/02 05:42:37;;;;;;;5.72;3.65;;;13.70;64.20;;;;;;5040638;28;20104;-67
2021/06/02 05:45:24;;;;;;;5.88;3.75;;;13.90;64.20;;;;;;5034283;28;20036;-67
2021/06/02 05:47:50;;;;;;;7.78;3.92;;;14.00;63.90;;;;;;5037823;28;20540;-68
2021/06/02 05:50:37;;;;;;;7.88;3.97;;;14.00;63.90;;;;;;5036565;28;20025;-68
2021/06/02 05:53:14;;;;;;;4.15;3.60;;;14.10;64.20;;;;;;5037891;28;20480;-68
2021/06/02 05:55:59;;;;;;;7.78;3.95;;;14.30;64.10;;;;;;5044413;28;20401;-67
2021/06/02 05:58:49;;;;;;;7.75;3.58;;;14.40;64.00;;;;;;5034468;28;20398;-69
2021/06/02 06:01:42;;;;;;;6.85;3.70;;;14.50;64.00;;;;;;5034561;28;20096;-67
2021/06/02 06:04:23;;;;;;;6.47;3.63;;;14.60;63.70;;;;;;5038644;28;20021;-68
2021/06/02 06:07:20;;;;;;;7.05;3.67;;;14.60;63.30;;;;;;5034194;28;20044;-68
2021/06/02 06:10:16;;;;;;;4.60;3.40;;;14.70;63.80;;;;;;5049618;28;20055;-69
2021/06/02 06:12:58;;;;;;;5.72;3.45;;;14.90;63.90;;;;;;5038807;28;20171;-68
2021/06/02 06:15:38;;;;;;;3.97;3.08;;;15.10;63.70;;;;;;5043560;28;20021;-66
2021/06/02 06:18:22;;;;;;;6.05;3.53;;;15.30;63.20;;;;;;5040400;28;20473;-68
2021/06/02 06:21:21;;;;;;;8.07;3.80;;;15.50;62.90;;;;;;5041708;28;20021;-67
2021/06/02 06:23:59;;;;;;;6.55;3.72;;;15.80;62.50;;;;;;5038588;28;20493;-68
2021/06/02 06:26:32;;;;;;;6.40;3.15;;;16.10;62.00;;;;;;5044289;28;20437;-69
2021/06/02 06:29:00;;;;;;;4.05;3.17;;;16.30;61.70;;;;;;5045136;28;20033;-67
2021/06/02 06:31:30;;;;;;;4.13;3.30;;;16.60;61.60;;;;;;5038504;28;20075;-67
2021/06/02 06:33:57;;;;;;;10.07;3.17;;;16.80;61.00;;;;;;5041160;28;20055;-67
2021/06/02 06:36:25;;;;;;;4.50;3.45;;;17.00;60.70;;;;;;5046602;28;20437;-68
2021/06/02 06:38:58;;;;;;;4.25;3.15;;;17.20;60.10;;;;;;5034887;28;20413;-68
2021/06/02 06:41:26;;;;;;;4.20;3.00;;;17.40;59.60;;;;;;5042949;28;20070;-67
2021/06/02 06:43:54;;;;;;;4.65;2.92;;;17.60;59.30;;;;;;5051750;28;20150;-67
2021/06/02 06:46:23;;;;;;;3.72;2.72;;;17.90;58.90;;;;;;5042729;28;20022;-67
2021/06/02 06:48:50;;;;;;;6.20;2.58;;;18.10;58.20;;;;;;5038660;28;20021;-69
2021/06/02 06:51:21;;;;;;;3.38;2.70;;;18.30;57.70;;;;;;5042855;28;20025;-68
2021/06/02 06:53:48;;;;;;;3.47;2.50;;;18.50;57.30;;;;;;5051182;28;20075;-69
2021/06/02 06:56:15;;;;;;;2.95;2.67;;;18.70;57.30;;;;;;5048216;28;20484;-69
2021/06/02 06:58:43;;;;;;;3.42;2.83;;;18.80;56.90;;;;;;5035408;28;20084;-70
2021/06/02 07:01:09;;;;;;;7.13;2.63;;;19.00;56.40;;;;;;5042009;28;20067;-70
2021/06/02 07:03:35;;;;;;;3.72;2.47;;;19.20;56.10;;;;;;5044671;28;20025;-71
2021/06/02 07:06:04;;;;;;;2.70;2.38;;;19.30;55.70;;;;;;5042410;28;20036;-69
2021/06/02 07:08:32;;;;;;;3.50;2.80;;;19.50;55.20;;;;;;5032166;28;20025;-70
2021/06/02 07:11:02;;;;;;;2.42;2.22;;;19.70;54.80;;;;;;5040630;28;20033;-70
2021/06/02 07:13:29;;;;;;;3.45;2.33;;;19.90;54.60;;;;;;5039656;28;20531;-69
2021/06/02 07:15:59;;;;;;;2.70;2.50;;;20.00;54.10;;;;;;5043886;28;20037;-70
2021/06/02 07:18:25;;;;;;;4.82;2.65;;;20.20;53.80;;;;;;5037316;28;20446;-70
2021/06/02 07:20:52;;;;;;;3.92;2.30;;;20.40;53.80;;;;;;5051471;28;20088;-68
2021/06/02 07:23:19;;;;;;;5.30;2.35;;;20.60;53.40;;;;;;5043185;28;20082;-70
2021/06/02 07:25:45;;;;;;;3.03;2.00;;;20.70;53.00;;;;;;5047362;28;20021;-70
2021/06/02 07:28:13;;;;;;;2.88;2.22;;;20.90;52.30;;;;;;5038356;28;20021;-69
2021/06/02 07:30:39;;;;;;;2.10;1.90;;;21.10;51.60;;;;;;5046648;28;20405;-70
2021/06/02 07:33:06;;;;;;;2.03;1.80;;;21.20;51.30;;;;;;5032938;28;20112;-70
2021/06/02 07:35:31;;;;;;;3.25;1.88;;;21.40;50.90;;;;;;5043293;28;20021;-69
2021/06/02 07:37:57;;;;;;;3.30;1.80;;;21.60;50.80;;;;;;5037175;28;20401;-70
2021/06/02 07:40:22;;;;;;;3.95;2.13;;;21.80;50.30;;;;;;5039542;28;20104;-70
2021/06/02 07:42:48;;;;;;;3.92;2.05;;;22.10;49.90;;;;;;5046548;28;20390;-69
2021/06/02 07:45:15;;;;;;;1.83;1.73;;;22.30;49.50;;;;;;5030029;28;20033;-69
2021/06/02 07:47:41;;;;;;;2.08;1.85;;;22.50;49.10;;;;;;5050230;28;20091;-69
2021/06/02 07:50:07;;;;;;;2.60;1.80;;;22.70;48.50;;;;;;5033761;28;20029;-70
2021/06/02 07:52:33;;;;;;;4.20;1.80;;;22.80;47.90;;;;;;5036173;28;20029;-69
2021/06/02 07:54:59;;;;;;;1.80;1.50;;;23.00;47.50;;;;;;5031105;28;20108;-70
2021/06/02 07:57:25;;;;;;;3.22;2.13;;;23.10;47.00;;;;;;5043831;28;20029;-70
2021/06/02 07:59:51;;;;;;;3.92;1.77;;;23.30;46.70;;;;;;5050266;28;20039;-70
2021/06/02 08:02:16;;;;;;;2.38;2.10;;;23.50;46.20;;;;;;5033723;28;20026;-70
2021/06/02 08:04:42;;;;;;;3.92;1.90;;;23.70;46.00;;;;;;5030555;28;20056;-69
2021/06/02 08:07:08;;;;;;;3.15;1.70;;;24.00;45.60;;;;;;5038689;28;20040;-69
2021/06/02 08:09:35;;;;;;;6.32;1.63;;;24.30;44.80;;;;;;5034646;28;20601;-70
2021/06/02 08:12:01;;;;;;;6.80;2.10;;;24.60;44.00;;;;;;5039370;28;20024;-70
2021/06/02 08:14:27;;;;;;;2.38;1.60;;;24.80;43.10;;;;;;5031306;28;20037;-69
2021/06/02 08:16:53;;;;;;;2.47;1.50;;;25.00;43.10;;;;;;5109967;22;20052;-71
2021/06/02 08:19:19;;;;;;;2.92;1.50;;;25.30;42.70;;;;;;5032404;28;20365;-71
2021/06/02 08:21:45;;;;;;;8.07;1.63;;;25.60;42.00;;;;;;5044028;28;20432;-71
2021/06/02 08:24:11;;;;;;;4.97;1.45;;;25.90;41.50;;;;;;5045499;28;20029;-71
2021/06/02 08:26:38;;;;;;;5.85;1.45;;;26.10;41.10;;;;;;5046122;28;20121;-71
2021/06/02 08:29:05;;;;;;;2.25;1.27;;;26.30;40.70;;;;;;5050074;28;20502;-71
2021/06/02 08:31:31;;;;;;;4.05;1.30;;;26.50;40.10;;;;;;5040424;28;20033;-71
2021/06/02 08:34:00;;;;;;;2.80;1.35;;;26.70;39.70;;;;;;5048495;28;20734;-70
2021/06/02 08:36:27;;;;;;;1.65;1.15;;;27.10;39.00;;;;;;5032269;28;20040;-70
2021/06/02 08:38:53;;;;;;;2.50;1.10;;;27.50;38.40;;;;;;5050007;28;20027;-71
2021/06/02 08:41:20;;;;;;;2.83;1.30;;;28.00;37.70;;;;;;5050023;28;20056;-72
2021/06/02 08:43:47;;;;;;;2.25;1.27;;;28.40;36.80;;;;;;5051008;28;20079;-71
2021/06/02 08:46:15;;;;;;;1.98;1.40;;;28.90;36.20;;;;;;5040695;28;20053;-71
2021/06/02 08:48:44;;;;;;;1.98;1.17;;;29.40;35.60;;;;;;5048515;28;20029;-70
2021/06/02 08:51:10;;;;;;;3.20;1.42;;;29.80;34.60;;;;;;5050506;28;20384;-71
2021/06/02 08:53:36;;;;;;;1.80;1.35;;;30.30;34.50;;;;;;5049545;28;20033;-70
2021/06/02 08:56:03;;;;;;;2.28;1.40;;;30.90;33.80;;;;;;5041782;28;20025;-70
2021/06/02 08:58:29;;;;;;;2.42;1.42;;;31.30;32.80;;;;;;5049784;28;20104;-69
2021/06/02 09:00:56;;;;;;;1.65;1.30;;;31.50;32.30;;;;;;5050230;28;20099;-70
2021/06/02 09:03:21;;;;;;;2.80;1.20;;;31.70;31.90;;;;;;5025438;28;20052;-70
2021/06/02 09:05:47;;;;;;;4.55;1.05;;;31.90;31.20;;;;;;5048513;28;20060;-71
2021/06/02 09:08:14;;;;;;;4.35;1.45;;;32.00;31.30;;;;;;5032463;28;20033;-72
2021/06/02 09:10:45;;;;;;;1.50;1.05;;;32.30;31.00;;;;;;5049428;28;20097;-72
2021/06/02 09:13:23;;;;;;;3.70;1.30;;;31.90;31.10;;;;;;5050338;28;20033;-72
2021/06/02 09:15:52;;;;;;;2.03;1.10;;;32.30;31.10;;;;;;5048389;28;20023;-73
2021/06/02 09:18:20;;;;;;;4.25;1.20;;;32.30;30.70;;;;;;5040541;28;20064;-72
2021/06/02 09:20:48;;;;;;;2.38;1.10;;;32.40;30.60;;;;;;5049697;28;20086;-72
2021/06/02 09:23:34;;;;;;;1.15;1.00;;;32.60;30.80;;;;;;5048907;28;20112;-72
2021/06/02 09:26:15;;;;;;;1.08;0.88;;;32.90;30.50;;;;;;5042751;28;20607;-73
2021/06/02 09:28:52;;;;;;;4.90;0.98;;;33.10;30.20;;;;;;5048069;28;20103;-73
2021/06/02 09:31:28;;;;;;;4.97;1.10;;;33.60;30.50;;;;;;5049657;28;20088;-73
2021/06/02 09:34:00;;;;;;;4.10;1.10;;;34.00;30.00;;;;;;5035488;28;20017;-73
2021/06/02 09:36:39;;;;;;;2.90;1.20;;;34.30;29.40;;;;;;5049555;28;20017;-73
2021/06/02 09:39:07;;;;;;;1.67;1.00;;;34.50;29.50;;;;;;5049854;28;20025;-73
2021/06/02 09:41:51;;;;;;;1.88;0.90;;;34.60;29.30;;;;;;5048303;28;20022;-73
2021/06/02 09:44:25;;;;;;;2.70;1.00;;;34.70;29.20;;;;;;5050288;28;20028;-72
2021/06/02 09:47:04;;;;;;;3.55;1.00;;;34.70;29.10;;;;;;5052268;28;20117;-73
2021/06/02 09:49:44;;;;;;;1.20;0.90;;;34.80;29.30;;;;;;5027315;28;20496;-73
2021/06/02 09:52:10;;;;;;;1.60;0.80;;;34.90;29.70;;;;;;5053664;28;20043;-73
2021/06/02 09:54:35;;;;;;;2.28;1.10;;;34.80;29.60;;;;;;5052697;28;20116;-73
2021/06/02 09:57:13;;;;;;;1.33;1.05;;;34.60;29.50;;;;;;5053389;28;20063;-73
2021/06/02 09:59:55;;;;;;;1.13;1.02;;;34.40;29.90;;;;;;5053358;28;20468;-73
2021/06/02 10:02:21;;;;;;;5.85;1.15;;;34.20;29.70;;;;;;5051618;28;20028;-73
2021/06/02 10:05:05;;;;;;;3.28;1.17;;;33.90;29.80;;;;;;5048888;28;20017;-73
2021/06/02 10:07:31;;;;;;;2.17;0.88;;;33.70;30.00;;;;;;5052476;28;20060;-73
2021/06/02 10:10:20;;;;;;;0.75;0.75;;;33.60;30.00;;;;;;5053347;28;20108;-73
2021/06/02 10:13:05;;;;;;;1.65;0.88;;;33.40;29.60;;;;;;5052875;28;20024;-73
2021/06/02 10:15:49;;;;;;;2.45;0.82;;;33.20;30.10;;;;;;5052370;28;20025;-72
2021/06/02 10:18:38;;;;;;;2.78;1.13;;;33.00;30.60;;;;;;5041211;28;20026;-73
2021/06/02 10:21:06;;;;;;;2.33;2.03;;;32.60;30.30;;;;;;5050362;28;20028;-73
2021/06/02 10:23:39;;;;;;;2.70;0.82;;;32.40;30.00;;;;;;5053456;28;20037;-73
2021/06/02 10:26:07;;;;;;;1.17;0.75;;;32.20;30.00;;;;;;5052326;28;20049;-73
2021/06/02 10:28:32;;;;;;;1.73;0.77;;;32.00;30.80;;;;;;5034776;28;20029;-73
2021/06/02 10:31:00;;;;;;;2.70;0.80;;;31.80;30.50;;;;;;5053036;28;20025;-73
2021/06/02 10:33:26;;;;;;;1.45;0.93;;;31.60;30.30;;;;;;5053074;28;20481;-72
2021/06/02 10:35:53;;;;;;;3.33;0.90;;;31.40;30.10;;;;;;5050471;28;20047;-72
2021/06/02 10:38:19;;;;;;;5.22;1.05;;;31.20;30.30;;;;;;5034940;28;20735;-72
2021/06/02 10:40:45;;;;;;;1.17;1.00;;;31.00;30.50;;;;;;5049115;28;20025;-72
2021/06/02 10:43:18;;;;;;;1.08;0.98;;;30.80;30.40;;;;;;5052566;28;20615;-71
2021/06/02 10:45:48;;;;;;;1.58;1.00;;;30.50;30.50;;;;;;5045181;28;20094;-71
2021/06/02 10:48:13;;;;;;;2.13;1.20;;;30.20;30.00;;;;;;5026542;28;20480;-71
2021/06/02 10:50:42;;;;;;;2.90;1.10;;;29.90;30.50;;;;;;5031510;28;20109;-71
2021/06/02 10:53:24;;;;;;;1.38;0.90;;;29.70;30.90;;;;;;5035062;28;20037;-71
2021/06/02 10:55:57;;;;;;;2.08;1.10;;;29.50;30.40;;;;;;5051169;28;20536;-71
2021/06/02 10:58:31;;;;;;;2.05;1.00;;;29.40;31.60;;;;;;5052014;28;20181;-71
2021/06/02 11:01:06;;;;;;;2.80;2.60;;;29.20;31.60;;;;;;5046176;28;20022;-71
2021/06/02 11:03:32;;;;;;;1.40;0.90;;;29.00;32.00;;;;;;5051676;28;20366;-71
2021/06/02 11:06:18;;;;;;;7.82;1.10;;;28.80;32.20;;;;;;5051581;28;20094;-71
2021/06/02 11:08:52;;;;;;;1.10;1.00;;;28.60;32.50;;;;;;5041376;28;20041;-71
2021/06/02 11:11:29;;;;;;;2.83;0.90;;;28.60;33.00;;;;;;5052721;28;20033;-71
2021/06/02 11:14:16;;;;;;;0.80;0.80;;;28.60;32.60;;;;;;5031885;28;20024;-71
2021/06/02 11:17:02;;;;;;;1.92;0.90;;;28.50;32.80;;;;;;5042662;28;20035;-71
2021/06/02 11:19:48;;;;;;;1.40;0.80;;;28.50;33.00;;;;;;5052141;28;20021;-71
2021/06/02 11:22:22;;;;;;;1.23;0.90;;;28.40;32.50;;;;;;5051920;28;20473;-71
2021/06/02 11:24:49;;;;;;;4.32;0.82;;;28.30;32.70;;;;;;5051224;28;20029;-71
2021/06/02 11:27:15;;;;;;;1.85;0.95;;;28.30;33.10;;;;;;5052436;28;20440;-71
2021/06/02 11:29:49;;;;;;;0.95;0.88;;;28.20;33.00;;;;;;5051712;28;20080;-71
2021/06/02 11:32:25;;;;;;;3.83;1.10;;;28.20;32.90;;;;;;5048584;28;20021;-71
2021/06/02 11:34:54;;;;;;;1.42;1.00;;;28.10;32.90;;;;;;5051329;28;20159;-71
2021/06/02 11:37:23;;;;;;;2.40;1.00;;;28.10;32.80;;;;;;5051533;28;20044;-71
2021/06/02 11:39:51;;;;;;;3.20;1.10;;;28.00;33.50;;;;;;5051925;28;20017;-71
2021/06/02 11:42:41;;;;;;;4.15;1.00;;;28.00;33.50;;;;;;5051974;28;20029;-71
2021/06/02 11:45:13;;;;;;;1.75;0.90;;;28.10;33.30;;;;;;5050837;28;20028;-71
2021/06/02 11:47:49;;;;;;;;;;;28.00;33.30;;;;;;5045214;28;20024;-73
2021/06/02 11:50:24;;;;;;;1.58;1.00;;;28.00;33.80;;;;;;5050150;28;20360;-70
2021/06/02 11:53:00;;;;;;;1.58;1.10;;;27.90;33.00;;;;;;5040718;28;20028;-70
2021/06/02 11:55:28;;;;;;;3.20;0.85;;;27.90;33.20;;;;;;5051003;28;20103;-70
2021/06/02 11:57:53;;;;;;;0.98;0.90;;;27.80;33.20;;;;;;5050845;28;20044;-71
2021/06/02 12:00:30;;;;;;;2.75;0.90;;;27.60;32.60;;;;;;5033230;28;20476;-71
2021/06/02 12:03:07;;;;;;;2.92;0.80;;;27.50;33.60;;;;;;5028931;28;20508;-71
2021/06/02 12:05:34;;;;;;;1.23;0.80;;;27.50;33.80;;;;;;5041870;28;20032;-71
2021/06/02 12:08:02;;;;;;;2.28;1.30;;;27.60;33.30;;;;;;5051121;28;20083;-70
2021/06/02 12:10:33;;;;;;;2.65;1.00;;;27.60;33.00;;;;;;5050502;28;20507;-71
2021/06/02 12:13:00;;;;;;;5.45;0.95;;;27.60;33.00;;;;;;5033754;28;20135;-70
2021/06/02 12:15:26;;;;;;;4.20;1.75;;;27.70;33.40;;;;;;5050008;28;20029;-70
2021/06/02 12:17:53;;;;;;;2.55;0.93;;;27.80;33.30;;;;;;5043092;28;20385;-70
2021/06/02 12:20:25;;;;;;;1.67;1.02;;;27.80;33.30;;;;;;5048679;28;20021;-70
2021/06/02 12:22:51;;;;;;;;;;;27.90;33.20;;;;;;5033969;28;20056;-70
2021/06/02 12:25:22;;;;;;;1.92;0.90;;;27.90;33.60;;;;;;5050231;28;20676;-70
2021/06/02 12:27:49;;;;;;;2.20;0.75;;;27.90;33.40;;;;;;5033316;28;20527;-70
2021/06/02 12:30:18;;;;;;;1.00;0.90;;;27.80;33.30;;;;;;5033119;28;20039;-71
2021/06/02 12:32:53;;;;;;;2.30;1.00;;;27.70;33.20;;;;;;5050314;28;20043;-71
2021/06/02 12:35:29;;;;;;;2.53;1.20;;;27.60;33.50;;;;;;5047674;28;20496;-71
2021/06/02 12:38:03;;;;;;;1.35;0.88;;;27.60;33.40;;;;;;5037210;28;20044;-70
2021/06/02 12:40:29;;;;;;;2.22;1.00;;;27.70;33.30;;;;;;5051295;28;20488;-71
2021/06/02 12:42:55;;;;;;;4.32;1.25;;;27.80;33.70;;;;;;5051176;28;20041;-71
2021/06/02 12:45:25;;;;;;;4.88;1.85;;;27.80;33.80;;;;;;5049827;28;20664;-71
2021/06/02 12:47:51;;;;;;;1.67;1.00;;;27.80;33.00;;;;;;5022636;28;20511;-71
2021/06/02 12:50:37;;;;;;;3.00;1.20;;;27.80;33.10;;;;;;5044086;28;20041;-70
2021/06/02 12:53:05;;;;;;;3.80;1.08;;;27.70;32.50;;;;;;5044881;28;20183;-71
2021/06/02 12:55:35;;;;;;;1.52;1.15;;;27.60;32.70;;;;;;5048333;28;20110;-71
2021/06/02 12:58:20;;;;;;;1.48;1.00;;;27.50;32.60;;;;;;5050156;28;20028;-71
2021/06/02 13:00:48;;;;;;;2.42;0.93;;;27.40;32.70;;;;;;5049004;28;20476;-71
2021/06/02 13:03:15;;;;;;;2.38;0.90;;;27.30;32.70;;;;;;5050423;28;20440;-71
2021/06/02 13:05:45;;;;;;;2.83;0.85;;;27.20;32.80;;;;;;5037794;28;20708;-71
2021/06/02 13:08:11;;;;;;;1.67;1.13;;;27.00;33.00;;;;;;5049582;28;20032;-71
2021/06/02 13:10:39;;;;;;;1.05;0.90;;;26.90;32.50;;;;;;5049905;28;20116;-71
2021/06/02 13:13:07;;;;;;;2.92;1.00;;;26.80;32.10;;;;;;5049980;28;20552;-71
2021/06/02 13:15:46;;;;;;;0.88;0.82;;;26.80;32.60;;;;;;5026041;28;20033;-70
2021/06/02 13:18:26;;;;;;;3.70;0.90;;;26.80;32.00;;;;;;5021759;28;20044;-71
2021/06/02 13:20:52;;;;;;;0.85;0.80;;;26.70;32.20;;;;;;5043939;28;20029;-71
2021/06/02 13:23:20;;;;;;;2.53;1.13;;;26.70;32.00;;;;;;5042432;28;20083;-70
2021/06/02 13:26:09;;;;;;;1.67;0.80;;;26.60;32.40;;;;;;5049071;28;20025;-71
2021/06/02 13:28:54;;;;;;;1.83;0.80;;;26.60;33.10;;;;;;5045636;28;20106;-71
2021/06/02 13:31:35;;;;;;;4.57;0.70;;;26.60;32.50;;;;;;5049404;28;20047;-71